createdAt,value
2023-02-04T00:00:13.849Z,102665.31
2023-02-04T00:02:41.785Z,102673.41
2023-02-04T00:05:10.079Z,102676.66
2023-02-04T00:07:37.485Z,102684.84
2023-02-04T00:10:06.493Z,102683.41
2023-02-04T00:12:34.689Z,102697.78
2023-02-04T00:15:01.786Z,102704.16
2023-02-04T00:17:28.722Z,102717.31
2023-02-04T00:19:55.779Z,102727.69
2023-02-04T00:22:22.634Z,102726.75
2023-02-04T00:24:50.969Z,102734.25
2023-02-04T00:27:18.011Z,102738.56
2023-02-04T00:29:44.865Z,102749.94
2023-02-04T00:32:11.845Z,102759.66
2023-02-04T00:34:38.834Z,102761.59
2023-02-04T00:37:06.002Z,102769.31
2023-02-04T00:39:33.087Z,102777.00
2023-02-04T00:41:59.951Z,102788.63
2023-02-04T00:44:29.079Z,102778.44
2023-02-04T00:46:56.058Z,102779.94
2023-02-04T00:49:23.196Z,102787.13
2023-02-04T00:51:50.171Z,102791.63
2023-02-04T00:54:17.428Z,102795.25
2023-02-04T00:56:44.841Z,102805.19
2023-02-04T00:59:11.754Z,102813.06
2023-02-04T01:01:39.247Z,102810.84
2023-02-04T01:04:06.379Z,102818.84
2023-02-04T01:06:33.574Z,102836.63
2023-02-04T01:09:01.823Z,102838.38
2023-02-04T01:11:29.356Z,102847.31
2023-02-04T01:13:56.407Z,102848.09
2023-02-04T01:16:23.498Z,102854.81
2023-02-04T01:18:50.926Z,102859.50
2023-02-04T01:21:17.866Z,102865.88
2023-02-04T01:23:45.066Z,102865.53
2023-02-04T01:26:12.099Z,102872.28
2023-02-04T01:28:38.940Z,102884.72
2023-02-04T01:31:06.095Z,102888.03
2023-02-04T01:33:33.250Z,102893.16
2023-02-04T01:36:00.423Z,102890.97
2023-02-04T01:38:27.416Z,102896.22
2023-02-04T01:40:54.716Z,102905.03
2023-02-04T01:43:23.424Z,102901.72
2023-02-04T01:45:51.438Z,102901.09
2023-02-04T01:48:21.507Z,102903.66
2023-02-04T01:50:50.721Z,102910.53
2023-02-04T01:53:22.136Z,102911.16
2023-02-04T01:55:49.064Z,102918.72
2023-02-04T01:58:16.743Z,102920.16
2023-02-04T02:00:43.575Z,102924.56
2023-02-04T02:03:13.622Z,102917.75
2023-02-04T02:05:51.544Z,102929.94
2023-02-04T02:08:18.784Z,102935.78
2023-02-04T02:10:48.392Z,102937.75
2023-02-04T02:13:19.788Z,102947.75
2023-02-04T02:15:47.767Z,102950.78
2023-02-04T02:18:15.346Z,102958.13
2023-02-04T02:20:45.236Z,102967.13
2023-02-04T02:23:33.755Z,102965.78
2023-02-04T02:26:00.688Z,102978.72
2023-02-04T02:28:27.741Z,102985.69
2023-02-04T02:30:54.779Z,102984.13
2023-02-04T02:33:22.183Z,102997.81
2023-02-04T02:35:49.492Z,103001.56
2023-02-04T02:38:17.569Z,103008.47
2023-02-04T02:40:45.311Z,103010.53
2023-02-04T02:43:19.073Z,103014.66
2023-02-04T02:45:46.294Z,103015.34
2023-02-04T02:48:13.370Z,103034.06
2023-02-04T02:50:42.372Z,103037.50
2023-02-04T02:53:17.189Z,103047.09
2023-02-04T02:55:44.944Z,103047.41
2023-02-04T02:58:23.670Z,103053.09
2023-02-04T03:00:50.909Z,103046.13
2023-02-04T03:03:23.921Z,103061.59
2023-02-04T03:05:55.589Z,103066.97
2023-02-04T03:08:22.753Z,103060.34
2023-02-04T03:10:49.869Z,103061.81
2023-02-04T03:13:18.593Z,103061.09
2023-02-04T03:15:48.010Z,103064.06
2023-02-04T03:18:20.994Z,103071.88
2023-02-04T03:20:50.852Z,103081.09
2023-02-04T03:23:18.564Z,103093.78
2023-02-04T03:25:45.666Z,103111.13
2023-02-04T03:28:12.741Z,103112.63
2023-02-04T03:30:39.890Z,103121.75
2023-02-04T03:33:07.205Z,103127.22
2023-02-04T03:35:34.159Z,103126.69
2023-02-04T03:38:01.335Z,103133.75
2023-02-04T03:40:30.282Z,103140.31
2023-02-04T03:42:57.500Z,103146.84
2023-02-04T03:45:24.951Z,103145.84
2023-02-04T03:47:52.069Z,103158.50
2023-02-04T03:50:19.255Z,103154.84
2023-02-04T03:52:46.147Z,103155.47
2023-02-04T03:55:13.129Z,103165.09
2023-02-04T03:57:40.149Z,103172.16
2023-02-04T04:00:07.894Z,103173.63
2023-02-04T04:02:34.875Z,103178.09
2023-02-04T04:05:01.985Z,103183.66
2023-02-04T04:07:28.865Z,103187.50
2023-02-04T04:09:55.756Z,103179.72
2023-02-04T04:12:22.619Z,103174.50
2023-02-04T04:14:49.586Z,103181.22
2023-02-04T04:17:16.582Z,103194.03
2023-02-04T04:19:45.272Z,103197.47
2023-02-04T04:22:14.190Z,103190.19
2023-02-04T04:24:44.151Z,103197.25
2023-02-04T04:27:11.172Z,103195.94
2023-02-04T04:29:38.030Z,103205.00
2023-02-04T04:32:05.644Z,103204.72
2023-02-04T04:34:32.564Z,103203.59
2023-02-04T04:36:59.576Z,103205.81
2023-02-04T04:39:26.639Z,103214.72
2023-02-04T04:41:53.686Z,103219.22
2023-02-04T04:44:20.753Z,103222.38
2023-02-04T04:46:47.805Z,103232.38
2023-02-04T04:49:15.016Z,103237.25
2023-02-04T04:51:41.738Z,103242.03
2023-02-04T04:54:08.947Z,103244.69
2023-02-04T04:56:35.872Z,103257.13
2023-02-04T04:59:03.698Z,103269.34
2023-02-04T05:01:30.606Z,103280.34
2023-02-04T05:03:57.691Z,103277.91
2023-02-04T05:06:25.696Z,103287.06
2023-02-04T05:08:53.146Z,103288.22
2023-02-04T05:11:20.962Z,103300.16
2023-02-04T05:13:51.532Z,103304.63
2023-02-04T05:16:18.511Z,103304.41
2023-02-04T05:18:45.668Z,103305.34
2023-02-04T05:21:12.676Z,103307.25
2023-02-04T05:23:39.449Z,103318.13
2023-02-04T05:26:06.222Z,103316.78
2023-02-04T05:28:33.089Z,103316.34
2023-02-04T05:31:00.396Z,103323.28
2023-02-04T05:33:27.411Z,103330.84
2023-02-04T05:35:54.261Z,103331.63
2023-02-04T05:38:22.958Z,103338.50
2023-02-04T05:40:49.915Z,103332.94
2023-02-04T05:43:16.763Z,103340.44
2023-02-04T05:45:44.708Z,103347.25
2023-02-04T05:48:11.549Z,103347.34
2023-02-04T05:50:38.365Z,103352.38
2023-02-04T05:53:07.824Z,103351.41
2023-02-04T05:55:34.788Z,103355.41
2023-02-04T05:58:02.062Z,103356.38
2023-02-04T06:00:29.126Z,103360.13
2023-02-04T06:02:55.898Z,103359.16
2023-02-04T06:05:23.471Z,103361.41
2023-02-04T06:07:50.550Z,103364.69
2023-02-04T06:10:17.639Z,103379.38
2023-02-04T06:12:44.692Z,103389.03
2023-02-04T06:15:12.113Z,103390.34
2023-02-04T06:17:39.356Z,103392.06
2023-02-04T06:20:07.528Z,103394.00
2023-02-04T06:22:34.799Z,103391.94
2023-02-04T06:25:01.799Z,103394.78
2023-02-04T06:27:28.823Z,103393.41
2023-02-04T06:29:56.032Z,103403.66
2023-02-04T06:32:23.510Z,103406.19
2023-02-04T06:34:50.737Z,103408.09
2023-02-04T06:37:17.629Z,103410.44
2023-02-04T06:39:44.835Z,103411.38
2023-02-04T06:42:11.746Z,103414.44
2023-02-04T06:44:38.936Z,103428.59
2023-02-04T06:47:05.842Z,103437.38
2023-02-04T06:49:32.753Z,103434.44
2023-02-04T06:51:59.726Z,103436.53
2023-02-04T06:54:26.696Z,103444.66
2023-02-04T06:56:53.578Z,103453.38
2023-02-04T06:59:20.540Z,103446.44
2023-02-04T07:01:47.831Z,103459.47
2023-02-04T07:04:14.856Z,103459.25
2023-02-04T07:06:41.879Z,103467.00
2023-02-04T07:09:08.631Z,103473.31
2023-02-04T07:11:35.369Z,103482.03
2023-02-04T07:14:02.671Z,103485.00
2023-02-04T07:16:29.572Z,103476.28
2023-02-04T07:18:56.518Z,103482.53
2023-02-04T07:21:23.730Z,103487.78
2023-02-04T07:23:50.706Z,103484.25
2023-02-04T07:26:17.754Z,103486.59
2023-02-04T07:28:45.127Z,103489.63
2023-02-04T07:31:12.237Z,103496.31
2023-02-04T07:33:39.490Z,103498.69
2023-02-04T07:36:06.742Z,103496.78
2023-02-04T07:38:33.726Z,103504.63
2023-02-04T07:41:00.594Z,103514.94
2023-02-04T07:43:27.644Z,103519.28
2023-02-04T07:45:54.462Z,103519.16
2023-02-04T07:48:21.485Z,103519.25
2023-02-04T07:50:49.379Z,103528.00
2023-02-04T07:53:16.348Z,103519.97
2023-02-04T07:55:43.856Z,103522.25
2023-02-04T07:58:10.777Z,103526.97
2023-02-04T08:00:37.748Z,103529.75
2023-02-04T08:03:04.863Z,103520.59
2023-02-04T08:05:31.784Z,103531.38
2023-02-04T08:07:58.920Z,103533.06
2023-02-04T08:10:25.735Z,103535.69
2023-02-04T08:12:52.517Z,103539.84
2023-02-04T08:15:19.756Z,103542.13
2023-02-04T08:17:46.465Z,103545.44
2023-02-04T08:20:13.571Z,103548.13
2023-02-04T08:22:40.419Z,103541.66
2023-02-04T08:25:07.853Z,103551.34
2023-02-04T08:27:34.769Z,103553.47
2023-02-04T08:30:01.613Z,103561.47
2023-02-04T08:32:29.607Z,103559.31
2023-02-04T08:34:59.439Z,103557.47
2023-02-04T08:37:26.211Z,103555.63
2023-02-04T08:39:53.354Z,103565.22
2023-02-04T08:42:20.395Z,103565.06
2023-02-04T08:44:47.440Z,103578.94
2023-02-04T08:47:14.375Z,103577.47
2023-02-04T08:49:41.426Z,103579.00
2023-02-04T08:52:09.303Z,103579.66
2023-02-04T08:54:36.336Z,103584.19
2023-02-04T08:57:03.737Z,103589.16
2023-02-04T08:59:30.869Z,103594.72
2023-02-04T09:01:57.849Z,103596.16
2023-02-04T09:04:25.143Z,103595.53
2023-02-04T09:06:52.086Z,103590.78
2023-02-04T09:09:22.280Z,103588.53
2023-02-04T09:11:49.592Z,103592.69
2023-02-04T09:14:16.327Z,103607.56
2023-02-04T09:16:43.383Z,103606.72
2023-02-04T09:19:12.816Z,103610.53
2023-02-04T09:21:39.828Z,103610.25
2023-02-04T09:24:06.814Z,103610.88
2023-02-04T09:26:34.053Z,103613.19
2023-02-04T09:29:00.924Z,103620.41
2023-02-04T09:31:27.926Z,103629.47
2023-02-04T09:33:55.030Z,103621.72
2023-02-04T09:36:21.949Z,103622.94
2023-02-04T09:38:48.673Z,103626.22
2023-02-04T09:41:15.852Z,103625.44
2023-02-04T09:43:44.657Z,103637.31
2023-02-04T09:46:23.299Z,103629.22
2023-02-04T09:48:54.315Z,103635.00
2023-02-04T09:51:24.100Z,103637.19
2023-02-04T09:53:56.183Z,103639.97
2023-02-04T09:56:28.617Z,103640.59
2023-02-04T09:58:55.428Z,103640.53
2023-02-04T10:01:22.617Z,103642.28
2023-02-04T10:03:51.696Z,103644.75
2023-02-04T10:06:21.631Z,103652.41
2023-02-04T10:08:50.548Z,103658.38
2023-02-04T10:11:19.832Z,103660.41
2023-02-04T10:13:55.057Z,103665.41
2023-02-04T10:16:30.384Z,103684.69
2023-02-04T10:19:03.823Z,103670.69
2023-02-04T10:21:33.161Z,103671.28
2023-02-04T10:24:03.167Z,103681.22
2023-02-04T10:26:31.882Z,103672.84
2023-02-04T10:29:04.443Z,103685.22
2023-02-04T10:31:38.803Z,103681.97
2023-02-04T10:34:18.949Z,103672.53
2023-02-04T10:36:49.047Z,103672.16
2023-02-04T10:39:18.097Z,103678.50
2023-02-04T10:41:50.435Z,103684.78
2023-02-04T10:44:20.439Z,103691.53
2023-02-04T10:46:48.620Z,103697.94
2023-02-04T10:49:22.892Z,103701.78
2023-02-04T10:51:51.751Z,103692.66
2023-02-04T10:54:30.573Z,103699.34
2023-02-04T10:57:28.915Z,103695.47
2023-02-04T10:59:59.490Z,103694.19
2023-02-04T11:02:49.753Z,103688.16
2023-02-04T11:05:20.771Z,103685.22
2023-02-04T11:07:49.791Z,103690.69
2023-02-04T11:10:25.193Z,103694.56
2023-02-04T11:12:54.916Z,103696.03
2023-02-04T11:15:42.247Z,103691.22
2023-02-04T11:18:22.660Z,103687.50
2023-02-04T11:20:51.721Z,103688.22
2023-02-04T11:23:28.598Z,103682.13
2023-02-04T11:26:02.336Z,103696.78
2023-02-04T11:28:29.417Z,103691.38
2023-02-04T11:31:04.057Z,103691.22
2023-02-04T11:33:43.227Z,103681.81
2023-02-04T11:36:13.670Z,103698.22
2023-02-04T11:38:45.675Z,103695.69
2023-02-04T11:41:29.485Z,103702.31
2023-02-04T11:43:58.191Z,103694.84
2023-02-04T11:46:28.594Z,103682.81
2023-02-04T11:48:57.625Z,103697.47
2023-02-04T11:51:33.198Z,103705.53
2023-02-04T11:54:00.166Z,103696.03
2023-02-04T11:56:29.860Z,103701.69
2023-02-04T11:58:58.653Z,103705.97
2023-02-04T12:01:32.309Z,103707.44
2023-02-04T12:04:02.172Z,103712.75
2023-02-04T12:06:33.290Z,103723.44
2023-02-04T12:09:07.924Z,103717.03
2023-02-04T12:11:35.802Z,103716.66
2023-02-04T12:14:10.941Z,103711.38
2023-02-04T12:16:48.084Z,103720.78
2023-02-04T12:19:15.617Z,103719.88
2023-02-04T12:21:42.577Z,103718.97
2023-02-04T12:24:09.849Z,103716.22
2023-02-04T12:26:36.854Z,103721.91
2023-02-04T12:29:05.731Z,103718.75
2023-02-04T12:31:33.598Z,103707.66
2023-02-04T12:34:01.096Z,103716.09
2023-02-04T12:36:29.864Z,103716.34
2023-02-04T12:38:59.150Z,103720.06
2023-02-04T12:41:26.463Z,103717.06
2023-02-04T12:43:55.337Z,103719.88
2023-02-04T12:46:22.439Z,103719.28
2023-02-04T12:48:49.420Z,103719.69
2023-02-04T12:51:16.282Z,103721.91
2023-02-04T12:53:43.229Z,103725.94
2023-02-04T12:56:12.784Z,103714.66
2023-02-04T12:58:39.677Z,103719.03
2023-02-04T13:01:06.733Z,103731.91
2023-02-04T13:03:33.948Z,103725.81
2023-02-04T13:06:00.761Z,103725.47
2023-02-04T13:08:27.591Z,103724.25
2023-02-04T13:10:55.706Z,103735.09
2023-02-04T13:13:24.357Z,103730.97
2023-02-04T13:15:51.349Z,103739.53
2023-02-04T13:18:18.827Z,103739.38
2023-02-04T13:20:46.432Z,103736.19
2023-02-04T13:23:14.331Z,103727.66
2023-02-04T13:25:41.233Z,103734.91
2023-02-04T13:28:08.222Z,103735.56
2023-02-04T13:30:35.289Z,103739.19
2023-02-04T13:33:02.461Z,103743.56
2023-02-04T13:35:29.450Z,103745.06
2023-02-04T13:37:56.623Z,103745.34
2023-02-04T13:40:23.715Z,103731.63
2023-02-04T13:42:50.876Z,103735.19
2023-02-04T13:45:19.373Z,103734.13
2023-02-04T13:47:48.143Z,103730.91
2023-02-04T13:50:19.862Z,103737.34
2023-02-04T13:52:46.661Z,103740.78
2023-02-04T13:55:13.444Z,103740.22
2023-02-04T13:57:40.271Z,103746.38
2023-02-04T14:00:08.107Z,103743.06
2023-02-04T14:02:34.945Z,103747.28
2023-02-04T14:05:02.012Z,103749.25
2023-02-04T14:07:30.679Z,103747.78
2023-02-04T14:09:57.495Z,103741.75
2023-02-04T14:12:24.314Z,103747.28
2023-02-04T14:14:51.093Z,103739.91
2023-02-04T14:17:18.037Z,103751.72
2023-02-04T14:19:44.849Z,103745.09
2023-02-04T14:22:13.031Z,103749.25
2023-02-04T14:24:42.774Z,103747.03
2023-02-04T14:27:10.633Z,103752.09
2023-02-04T14:29:37.594Z,103747.06
2023-02-04T14:32:07.481Z,103747.53
2023-02-04T14:34:34.876Z,103760.44
2023-02-04T14:37:02.042Z,103750.22
2023-02-04T14:39:29.054Z,103758.56
2023-02-04T14:41:55.859Z,103756.44
2023-02-04T14:44:22.613Z,103758.66
2023-02-04T14:46:50.008Z,103765.44
2023-02-04T14:49:17.701Z,103761.72
2023-02-04T14:51:44.925Z,103765.41
2023-02-04T14:54:11.741Z,103772.94
2023-02-04T14:56:39.006Z,103772.34
2023-02-04T14:59:06.291Z,103767.84
2023-02-04T15:01:33.383Z,103771.50
2023-02-04T15:04:00.867Z,103769.56
2023-02-04T15:06:29.046Z,103760.03
2023-02-04T15:08:57.405Z,103765.94
2023-02-04T15:11:24.381Z,103766.53
2023-02-04T15:13:51.112Z,103768.63
2023-02-04T15:16:18.150Z,103763.94
2023-02-04T15:18:45.185Z,103773.28
2023-02-04T15:21:12.098Z,103768.13
2023-02-04T15:23:39.067Z,103769.09
2023-02-04T15:26:06.019Z,103769.44
2023-02-04T15:28:35.746Z,103765.78
2023-02-04T15:31:04.978Z,103771.63
2023-02-04T15:33:32.232Z,103766.19
2023-02-04T15:35:59.107Z,103764.59
2023-02-04T15:38:26.004Z,103769.03
2023-02-04T15:40:52.973Z,103778.97
2023-02-04T15:43:20.165Z,103773.78
2023-02-04T15:45:47.505Z,103758.69
2023-02-04T15:48:14.404Z,103760.16
2023-02-04T15:50:41.192Z,103754.97
2023-02-04T15:53:08.124Z,103762.56
2023-02-04T15:55:35.926Z,103772.63
2023-02-04T15:58:02.714Z,103774.06
2023-02-04T16:00:29.741Z,103775.66
2023-02-04T16:02:56.756Z,103775.31
2023-02-04T16:05:23.955Z,103777.78
2023-02-04T16:07:50.967Z,103776.03
2023-02-04T16:10:18.869Z,103776.91
2023-02-04T16:12:47.574Z,103782.06
2023-02-04T16:15:15.203Z,103770.50
2023-02-04T16:17:42.082Z,103772.88
2023-02-04T16:20:10.268Z,103779.50
2023-02-04T16:22:39.901Z,103786.50
2023-02-04T16:25:07.298Z,103777.34
2023-02-04T16:27:34.270Z,103776.09
2023-02-04T16:30:01.439Z,103787.19
2023-02-04T16:32:28.408Z,103787.19
2023-02-04T16:34:56.899Z,103789.91
2023-02-04T16:37:23.817Z,103789.59
2023-02-04T16:39:51.774Z,103785.38
2023-02-04T16:42:19.448Z,103782.13
2023-02-04T16:44:47.095Z,103787.22
2023-02-04T16:47:14.164Z,103793.56
2023-02-04T16:49:45.133Z,103802.19
2023-02-04T16:52:11.858Z,103794.78
2023-02-04T16:54:38.855Z,103800.59
2023-02-04T16:57:05.811Z,103795.84
2023-02-04T16:59:33.108Z,103808.78
2023-02-04T17:02:00.944Z,103799.50
2023-02-04T17:04:30.703Z,103802.44
2023-02-04T17:06:57.644Z,103794.13
2023-02-04T17:09:24.698Z,103809.44
2023-02-04T17:11:52.440Z,103801.78
2023-02-04T17:14:20.072Z,103804.03
2023-02-04T17:16:48.318Z,103795.72
2023-02-04T17:19:21.439Z,103799.50
2023-02-04T17:21:49.204Z,103798.97
2023-02-04T17:24:16.298Z,103796.25
2023-02-04T17:26:43.380Z,103793.56
2023-02-04T17:29:13.789Z,103803.50
2023-02-04T17:31:43.486Z,103801.09
2023-02-04T17:34:10.882Z,103797.13
2023-02-04T17:36:38.994Z,103802.03
2023-02-04T17:39:09.876Z,103800.34
2023-02-04T17:41:36.807Z,103803.09
2023-02-04T17:44:06.176Z,103811.06
2023-02-04T17:46:35.934Z,103798.97
2023-02-04T17:49:02.862Z,103783.66
2023-02-04T17:51:29.839Z,103786.16
2023-02-04T17:54:00.802Z,103786.34
2023-02-04T17:56:28.065Z,103785.06
2023-02-04T17:58:56.683Z,103793.13
2023-02-04T18:01:25.529Z,103796.53
2023-02-04T18:03:53.169Z,103797.63
2023-02-04T18:06:23.954Z,103801.34
2023-02-04T18:08:52.785Z,103798.31
2023-02-04T18:11:27.398Z,103807.28
2023-02-04T18:14:00.040Z,103809.75
2023-02-04T18:16:30.498Z,103808.56
2023-02-04T18:19:17.210Z,103815.13
2023-02-04T18:21:44.659Z,103809.97
2023-02-04T18:24:11.456Z,103811.88
2023-02-04T18:26:44.315Z,103813.72
2023-02-04T18:29:33.161Z,103811.91
2023-02-04T18:32:04.114Z,103808.16
2023-02-04T18:34:37.536Z,103812.13
2023-02-04T18:37:29.222Z,103807.81
2023-02-04T18:40:11.840Z,103813.94
2023-02-04T18:42:44.607Z,103815.91
2023-02-04T18:45:32.617Z,103816.63
2023-02-04T18:48:20.936Z,103823.75
2023-02-04T18:50:49.358Z,103821.72
2023-02-04T18:53:16.686Z,103825.81
2023-02-04T18:55:48.859Z,103823.63
2023-02-04T18:58:34.648Z,103826.72
2023-02-04T19:01:16.904Z,103818.59
2023-02-04T19:03:53.036Z,103823.53
2023-02-04T19:06:34.532Z,103824.41
2023-02-04T19:09:10.209Z,103818.91
2023-02-04T19:11:51.841Z,103829.13
2023-02-04T19:14:51.751Z,103811.59
2023-02-04T19:17:33.537Z,103818.31
2023-02-04T19:20:23.049Z,103819.16
2023-02-04T19:22:57.195Z,103815.53
2023-02-04T19:25:36.171Z,103823.91
2023-02-04T19:28:24.394Z,103814.91
2023-02-04T19:31:01.792Z,103817.94
2023-02-04T19:33:35.876Z,103818.72
2023-02-04T19:36:40.177Z,103808.47
2023-02-04T19:39:22.255Z,103822.78
2023-02-04T19:41:51.207Z,103816.28
2023-02-04T19:44:41.129Z,103801.03
2023-02-04T19:47:42.866Z,103807.75
2023-02-04T19:50:29.482Z,103810.72
2023-02-04T19:53:13.563Z,103805.19
2023-02-04T19:55:46.355Z,103801.41
2023-02-04T19:58:27.476Z,103791.94
2023-02-04T20:01:01.925Z,103788.78
2023-02-04T20:03:52.502Z,103788.31
2023-02-04T20:06:37.257Z,103792.13
2023-02-04T20:09:18.884Z,103797.22
2023-02-04T20:11:48.706Z,103800.06
2023-02-04T20:14:19.128Z,103802.94
2023-02-04T20:16:57.799Z,103791.84
2023-02-04T20:19:25.310Z,103789.81
2023-02-04T20:22:26.533Z,103790.00
2023-02-04T20:24:59.244Z,103786.00
2023-02-04T20:27:37.423Z,103765.38
2023-02-04T20:30:11.999Z,103763.47
2023-02-04T20:32:44.978Z,103765.97
2023-02-04T20:35:17.738Z,103757.53
2023-02-04T20:37:48.853Z,103770.94
2023-02-04T20:40:21.598Z,103767.13
2023-02-04T20:42:55.047Z,103767.22
2023-02-04T20:45:44.392Z,103767.28
2023-02-04T20:48:20.620Z,103772.06
2023-02-04T20:50:54.863Z,103776.34
2023-02-04T20:53:25.944Z,103771.25
2023-02-04T20:56:05.685Z,103775.50
2023-02-04T20:58:41.713Z,103773.63
2023-02-04T21:01:28.146Z,103784.56
2023-02-04T21:03:57.990Z,103799.94
2023-02-04T21:06:35.366Z,103787.69
2023-02-04T21:09:04.541Z,103787.34
2023-02-04T21:11:31.463Z,103787.97
2023-02-04T21:13:58.425Z,103782.50
2023-02-04T21:16:25.362Z,103779.66
2023-02-04T21:18:53.285Z,103782.53
2023-02-04T21:21:21.316Z,103782.53
2023-02-04T21:23:48.394Z,103767.75
2023-02-04T21:26:15.350Z,103778.38
2023-02-04T21:28:42.276Z,103772.56
2023-02-04T21:31:11.857Z,103776.81
2023-02-04T21:33:38.998Z,103779.31
2023-02-04T21:36:06.290Z,103778.97
2023-02-04T21:38:34.173Z,103782.31
2023-02-04T21:41:01.108Z,103782.31
2023-02-04T21:43:30.510Z,103778.88
2023-02-04T21:45:57.651Z,103783.44
2023-02-04T21:48:25.024Z,103787.59
2023-02-04T21:50:52.062Z,103781.38
2023-02-04T21:53:19.043Z,103777.16
2023-02-04T21:55:45.903Z,103774.06
2023-02-04T21:58:12.831Z,103768.94
2023-02-04T22:00:42.908Z,103764.03
2023-02-04T22:03:15.836Z,103759.53
2023-02-04T22:05:44.403Z,103760.22
2023-02-04T22:08:12.560Z,103760.81
2023-02-04T22:10:39.769Z,103774.13
2023-02-04T22:13:25.475Z,103768.00
2023-02-04T22:15:52.281Z,103759.03
2023-02-04T22:18:20.546Z,103758.31
2023-02-04T22:20:47.297Z,103760.06
2023-02-04T22:23:14.051Z,103768.09
2023-02-04T22:25:41.231Z,103779.03
2023-02-04T22:28:08.391Z,103772.41
2023-02-04T22:30:35.355Z,103778.88
2023-02-04T22:33:02.860Z,103778.38
2023-02-04T22:35:30.008Z,103776.97
2023-02-04T22:37:58.568Z,103771.72
2023-02-04T22:40:26.873Z,103767.63
2023-02-04T22:42:54.043Z,103762.81
2023-02-04T22:45:20.977Z,103764.91
2023-02-04T22:47:48.016Z,103775.94
2023-02-04T22:50:14.996Z,103777.31
2023-02-04T22:52:43.809Z,103771.75
2023-02-04T22:55:10.833Z,103779.88
2023-02-04T22:57:37.747Z,103771.44
2023-02-04T23:00:09.395Z,103764.00
2023-02-04T23:02:41.110Z,103765.50
2023-02-04T23:05:09.585Z,103765.41
2023-02-04T23:07:37.534Z,103772.47
2023-02-04T23:10:04.737Z,103771.81
2023-02-04T23:12:31.452Z,103780.25
2023-02-04T23:14:58.488Z,103763.59
2023-02-04T23:17:28.267Z,103766.41
2023-02-04T23:19:55.258Z,103761.94
2023-02-04T23:22:22.382Z,103761.41
2023-02-04T23:24:49.925Z,103751.88
2023-02-04T23:27:17.297Z,103751.81
2023-02-04T23:29:44.324Z,103747.75
2023-02-04T23:32:11.229Z,103751.88
2023-02-04T23:34:38.086Z,103746.22
2023-02-04T23:37:05.234Z,103743.28
2023-02-04T23:39:32.237Z,103735.69
2023-02-04T23:41:59.293Z,103743.16
2023-02-04T23:44:26.244Z,103744.81
2023-02-04T23:46:53.257Z,103737.56
2023-02-04T23:49:20.513Z,103739.88
2023-02-04T23:51:47.389Z,103731.69
2023-02-04T23:54:14.469Z,103731.84
2023-02-04T23:56:41.544Z,103723.91
2023-02-04T23:59:08.672Z,103728.81
